| time (UTC) | temp F | wind direction | speed knots | gust knots | rain 1hr in | rain 24hr in | rain mn in | humidity % | barometer mb |
| 20260507171527 | 50 | 360 | 0.0 | 0.9 | 0.00 | 0.49 | 0.49 | 87 | 999.1 |
| 20260507170020 | 50 | 360 | 0.0 | 0.9 | 0.00 | 0.49 | 0.49 | 87 | 998.9 |
| 20260507164517 | 50 | 107 | 0.0 | 0.9 | 0.00 | 0.49 | 0.49 | 86 | 998.8 |
| 20260507163021 | 50 | 107 | 0.0 | 0.0 | 0.01 | 0.49 | 0.49 | 86 | 998.8 |
| 20260507161516 | 51 | 107 | 0.0 | 0.0 | 0.02 | 0.49 | 0.49 | 86 | 998.6 |
| 20260507160014 | 51 | 107 | 0.0 | 1.7 | 0.02 | 0.49 | 0.49 | 86 | 998.5 |
| 20260507154512 | 51 | 107 | 0.0 | 0.0 | 0.01 | 0.48 | 0.48 | 87 | 998.4 |
| 20260507153013 | 51 | 107 | 0.0 | 0.9 | 0.02 | 0.48 | 0.48 | 87 | 998.3 |
| 20260507151509 | 51 | 90 | 0.0 | 1.7 | 0.01 | 0.47 | 0.47 | 87 | 998.2 |
| 20260507150006 | 51 | 89 | 0.0 | 1.7 | 0.02 | 0.47 | 0.47 | 87 | 998.1 |
| 20260507144505 | 52 | 90 | 0.0 | 1.7 | 0.06 | 0.47 | 0.47 | 88 | 998.1 |
| 20260507143006 | 52 | 72 | 0.0 | 0.9 | 0.06 | 0.46 | 0.46 | 88 | 997.8 |
| 20260507141503 | 52 | 178 | 0.0 | 0.0 | 0.07 | 0.46 | 0.46 | 87 | 997.7 |
| 20260507140001 | 52 | 162 | 0.0 | 0.0 | 0.06 | 0.45 | 0.45 | 87 | 997.6 |
| 20260507134501 | 52 | 161 | 0.0 | 0.0 | 0.04 | 0.42 | 0.42 | 87 | 997.6 |
| 20260507133106 | 52 | 161 | 0.0 | 0.0 | 0.03 | 0.41 | 0.41 | 87 | 997.6 |
| 20260507131621 | 52 | 161 | 0.0 | 0.0 | 0.02 | 0.39 | 0.39 | 87 | 997.4 |
| 20260507130106 | 52 | 161 | 0.0 | 0.0 | 0.02 | 0.39 | 0.39 | 87 | 997.2 |
| 20260507124602 | 52 | 173 | 0.0 | 0.0 | 0.02 | 0.38 | 0.38 | 87 | 996.8 |
| 20260507123102 | 52 | 173 | 0.0 | 0.9 | 0.03 | 0.38 | 0.38 | 87 | 996.6 |
| 20260507121554 | 52 | 173 | 0.0 | 0.9 | 0.03 | 0.37 | 0.37 | 87 | 996.4 |
| 20260507120051 | 52 | 173 | 0.0 | 0.9 | 0.04 | 0.36 | 0.36 | 88 | 996.3 |
| 20260507114550 | 52 | 184 | 0.0 | 0.0 | 0.04 | 0.36 | 0.36 | 88 | 996.2 |
| 20260507113114 | 52 | 184 | 0.0 | 0.0 | 0.02 | 0.35 | 0.35 | 88 | 996.1 |
| 20260507111548 | 52 | 184 | 0.0 | 0.9 | 0.02 | 0.34 | 0.34 | 87 | 996.0 |
| 20260507110047 | 52 | 92 | 0.0 | 0.9 | 0.00 | 0.32 | 0.32 | 87 | 996.0 |
| 20260507104557 | 52 | 92 | 0.0 | 0.0 | 0.00 | 0.32 | 0.32 | 87 | 995.9 |
| 20260507103044 | 52 | 91 | 0.0 | 0.9 | 0.00 | 0.32 | 0.32 | 87 | 995.7 |
| 20260507101545 | 52 | 86 | 0.0 | 1.7 | 0.00 | 0.32 | 0.32 | 88 | 995.6 |
| 20260507100053 | 52 | 200 | 0.0 | 0.9 | 0.00 | 0.32 | 0.32 | 88 | 995.6 |
| 20260507094542 | 52 | 202 | 0.0 | 1.7 | 0.00 | 0.32 | 0.32 | 88 | 995.4 |
| 20260507093041 | 52 | 202 | 0.0 | 2.6 | 0.01 | 0.32 | 0.32 | 88 | 995.4 |
| 20260507091543 | 52 | 84 | 0.0 | 0.9 | 0.01 | 0.32 | 0.32 | 89 | 995.2 |
| 20260507090040 | 52 | 82 | 0.0 | 0.9 | 0.01 | 0.32 | 0.32 | 88 | 995.2 |
| 20260507084549 | 52 | 82 | 0.0 | 0.9 | 0.02 | 0.32 | 0.32 | 88 | 995.1 |
| 20260507083035 | 52 | 80 | 0.0 | 1.7 | 0.02 | 0.31 | 0.31 | 88 | 994.9 |
| 20260507081533 | 52 | 109 | 0.0 | 0.0 | 0.02 | 0.31 | 0.31 | 88 | 994.7 |
| 20260507080032 | 52 | 109 | 0.0 | 0.0 | 0.02 | 0.31 | 0.31 | 88 | 994.6 |
| 20260507074531 | 52 | 109 | 0.0 | 0.0 | 0.02 | 0.31 | 0.31 | 88 | 994.5 |
| 20260507073030 | 52 | 109 | 0.0 | 0.9 | 0.02 | 0.30 | 0.30 | 88 | 994.2 |
| 20260507071534 | 52 | 109 | 0.0 | 0.0 | 0.02 | 0.28 | 0.28 | 88 | 994.1 |
| 20260507070026 | 52 | 109 | 0.0 | 0.0 | 0.05 | 0.28 | 0.28 | 88 | 993.9 |
| 20260507064523 | 52 | 109 | 0.0 | 0.0 | 0.07 | 0.28 | 0.28 | 88 | 993.8 |
| 20260507063121 | 52 | 109 | 0.0 | 0.0 | 0.09 | 0.28 | 0.28 | 88 | 993.6 |
| 20260507061520 | 52 | 109 | 0.0 | 0.0 | 0.12 | 0.27 | 0.27 | 88 | 993.5 |
| 20260507060032 | 52 | 109 | 0.0 | 0.0 | 0.13 | 0.24 | 0.24 | 87 | 993.4 |
| 20260507054518 | 52 | 109 | 0.0 | 0.0 | 0.11 | 0.22 | 0.22 | 87 | 993.2 |
| 20260507053015 | 52 | 109 | 0.0 | 0.0 | 0.07 | 0.18 | 0.18 | 87 | 993.0 |
| 20260507051514 | 52 | 109 | 0.0 | 0.0 | 0.04 | 0.15 | 0.15 | 87 | 992.9 |
| 20260507050034 | 52 | 109 | 0.0 | 0.0 | 0.01 | 0.12 | 0.12 | 87 | 992.7 |
| 20260507044518 | 52 | 109 | 0.0 | 0.0 | 0.01 | 0.11 | 0.11 | 87 | 992.7 |
| 20260507043008 | 52 | 109 | 0.0 | 1.7 | 0.02 | 0.11 | 0.11 | 87 | 992.3 |
| 20260507041508 | 52 | 113 | 0.0 | 0.9 | 0.02 | 0.11 | 0.11 | 87 | 992.2 |
| 20260507040005 | 52 | 113 | 0.0 | 0.9 | 0.02 | 0.11 | 0.11 | 86 | 992.1 |
| 20260507034506 | 53 | 114 | 0.0 | 0.0 | 0.02 | 0.10 | 0.10 | 86 | 992.1 |
| 20260507033003 | 53 | 114 | 0.0 | 0.0 | 0.02 | 0.09 | 0.09 | 86 | 992.1 |
| 20260507031505 | 53 | 113 | 0.0 | 1.7 | 0.02 | 0.09 | 0.09 | 86 | 992.1 |
| 20260507024700 | 53 | 140 | 0.0 | 0.0 | 0.00 | 0.08 | 0.08 | 86 | 991.9 |
| 20260507023058 | 53 | 140 | 0.0 | 0.0 | 0.00 | 0.08 | 0.08 | 86 | 991.9 |
| 20260507021606 | 54 | 140 | 0.0 | 0.0 | 0.00 | 0.08 | 0.08 | 86 | 991.8 |
| 20260507020058 | 54 | 140 | 0.0 | 0.0 | 0.00 | 0.08 | 0.08 | 85 | 991.7 |
| 20260507014558 | 54 | 140 | 0.0 | 0.0 | 0.00 | 0.08 | 0.08 | 85 | 991.7 |
| 20260507013053 | 53 | 140 | 0.0 | 0.0 | 0.00 | 0.08 | 0.08 | 84 | 991.5 |
| 20260507011556 | 53 | 140 | 0.0 | 0.0 | 0.00 | 0.08 | 0.08 | 84 | 991.4 |
| 20260507010052 | 53 | 140 | 0.0 | 0.0 | 0.00 | 0.08 | 0.08 | 84 | 991.3 |
| 20260507004551 | 54 | 140 | 0.0 | 0.0 | 0.01 | 0.08 | 0.08 | 84 | 991.1 |
| 20260507003050 | 54 | 140 | 0.0 | 0.0 | 0.02 | 0.08 | 0.08 | 83 | 991.2 |
| 20260507001550 | 54 | 140 | 0.0 | 0.0 | 0.04 | 0.08 | 0.08 | 83 | 991.0 |
| 20260507000048 | 54 | 140 | 0.0 | 0.0 | 0.05 | 0.08 | 0.08 | 82 | 991.2 |
| 20260506234603 | 54 | 140 | 0.0 | 0.9 | 0.06 | 0.11 | 0.07 | 82 | 991.1 |
| 20260506233045 | 55 | 140 | 0.0 | 1.7 | 0.06 | 0.10 | 0.06 | 82 | 991.1 |
| 20260506231543 | 55 | 113 | 0.0 | 0.9 | 0.04 | 0.08 | 0.04 | 81 | 990.9 |
| 20260506230041 | 56 | 113 | 0.0 | 0.0 | 0.03 | 0.07 | 0.03 | 81 | 991.1 |
| 20260506224544 | 56 | 173 | 0.0 | 2.6 | 0.01 | 0.14 | 0.01 | 80 | 991.3 |
| 20260506223040 | 56 | 106 | 0.0 | 1.7 | 0.00 | 0.13 | 0.00 | 78 | 991.4 |
| 20260506221534 | 57 | 115 | 0.0 | 0.0 | 0.00 | 0.13 | 0.00 | 79 | 991.5 |
| 20260506220036 | 57 | 115 | 0.0 | 0.0 | 0.00 | 0.13 | 0.00 | 78 | 990.7 |
| 20260506214532 | 58 | 115 | 0.0 | 0.0 | 0.00 | 0.51 | 0.13 | 78 | 990.7 |
| 20260506213032 | 58 | 115 | 0.0 | 0.0 | 0.00 | 0.51 | 0.13 | 78 | 990.6 |
| 20260506211529 | 58 | 115 | 0.0 | 0.0 | 0.00 | 0.51 | 0.13 | 77 | 990.3 |
| 20260506210034 | 58 | 115 | 0.0 | 0.0 | 0.00 | 0.51 | 0.13 | 76 | 990.4 |
| 20260506204544 | 59 | 115 | 0.0 | 0.0 | 0.00 | 0.80 | 0.13 | 76 | 989.9 |
| 20260506203029 | 59 | 115 | 0.0 | 0.0 | 0.00 | 0.80 | 0.13 | 76 | 989.9 |
| 20260506201530 | 60 | 115 | 0.0 | 0.0 | 0.00 | 0.80 | 0.13 | 75 | 990.0 |
| 20260506200024 | 60 | 115 | 0.0 | 0.0 | 0.00 | 0.80 | 0.13 | 74 | 990.1 |
| 20260506194524 | 61 | 115 | 0.0 | 0.0 | 0.00 | 0.83 | 0.13 | 73 | 990.1 |
| 20260506193023 | 62 | 115 | 0.0 | 0.0 | 0.00 | 0.83 | 0.13 | 72 | 990.0 |
| 20260506191524 | 62 | 115 | 0.0 | 0.0 | 0.00 | 0.83 | 0.13 | 72 | 989.7 |
| 20260506190022 | 63 | 115 | 0.0 | 0.0 | 0.00 | 0.83 | 0.13 | 71 | 989.3 |
| 20260506184521 | 63 | 115 | 0.0 | 0.0 | 0.00 | 0.83 | 0.13 | 70 | 989.3 |
| 20260506183021 | 64 | 115 | 0.0 | 2.6 | 0.00 | 0.83 | 0.13 | 69 | 988.9 |
| 20260506181526 | 65 | 129 | 0.0 | 0.0 | 0.00 | 0.83 | 0.13 | 68 | 988.8 |
| 20260506180020 | 65 | 130 | 0.0 | 1.7 | 0.00 | 0.83 | 0.13 | 67 | 988.8 |
| 20260506174519 | 67 | 49 | 0.0 | 0.9 | 0.00 | 0.83 | 0.13 | 66 | 988.7 |
| 20260506173019 | 67 | 169 | 0.0 | 0.9 | 0.00 | 0.83 | 0.13 | 66 | 988.4 |